Time,TemperatureF,DewpointF,PressureIn,WindDirection,WindDirectionDegrees,WindSpeedMPH,WindSpeedGustMPH,Humidity,HourlyPrecipIn,Conditions,Clouds,dailyrainin,SoftwareType,DateUTC
2013-04-25 00:00:00,55.0,45.0,29.58,SW,226,0.0,0.0,69,0.00,,,0.00,WXlink_for_OpenVMS,2013-04-25 04:00:00,
2013-04-25 00:05:00,55.0,46.0,29.58,ESE,120,4.5,5.4,70,0.00,,,0.00,WXlink_for_OpenVMS,2013-04-25 04:05:00,
2013-04-25 00:10:00,54.9,46.0,29.58,SW,223,0.0,0.0,70,0.00,,,0.00,WXlink_for_OpenVMS,2013-04-25 04:10:00,
2013-04-25 00:15:00,54.9,46.0,29.58,SSW,202,0.0,0.0,70,0.00,,,0.00,WXlink_for_OpenVMS,2013-04-25 04:15:00,
2013-04-25 00:20:00,54.9,46.0,29.58,ENE,58,2.7,2.7,71,0.00,,,0.00,WXlink_for_OpenVMS,2013-04-25 04:20:00,
2013-04-25 00:25:00,54.9,46.0,29.58,SW,228,3.1,3.6,71,0.00,,,0.00,WXlink_for_OpenVMS,2013-04-25 04:25:00,
2013-04-25 00:30:00,54.7,46.0,29.58,South,183,0.0,2.7,72,0.00,,,0.00,WXlink_for_OpenVMS,2013-04-25 04:30:00,
2013-04-25 00:35:00,54.5,46.0,29.58,SW,218,3.1,3.1,72,0.00,,,0.00,WXlink_for_OpenVMS,2013-04-25 04:35:00,
2013-04-25 00:40:00,54.5,45.0,29.58,South,181,2.2,3.6,73,0.00,,,0.00,WXlink_for_OpenVMS,2013-04-25 04:40:00,
2013-04-25 00:45:00,54.5,45.0,29.58,WSW,246,0.0,2.7,73,0.00,,,0.00,WXlink_for_OpenVMS,2013-04-25 04:45:00,
2013-04-25 00:50:00,54.5,46.0,29.58,SW,228,2.2,2.7,74,0.00,,,0.00,WXlink_for_OpenVMS,2013-04-25 04:50:00,
2013-04-25 00:55:00,54.3,46.0,29.58,South,178,2.2,2.7,74,0.00,,,0.00,WXlink_for_OpenVMS,2013-04-25 04:55:00,
2013-04-25 01:05:00,54.5,46.0,29.58,SSW,204,2.2,0.0,75,0.00,,,0.00,WXlink_for_OpenVMS,2013-04-25 05:05:00,
2013-04-25 01:10:00,54.5,46.0,29.58,SSW,208,2.7,3.6,75,0.00,,,0.00,WXlink_for_OpenVMS,2013-04-25 05:10:00,
2013-04-25 01:15:00,54.5,46.0,29.58,SSW,204,3.1,3.6,76,0.00,,,0.00,WXlink_for_OpenVMS,2013-04-25 05:15:00,
2013-04-25 01:20:00,54.5,46.0,29.58,SSW,199,0.0,0.0,76,0.00,,,0.00,WXlink_for_OpenVMS,2013-04-25 05:20:00,
2013-04-25 01:25:00,54.5,46.0,29.58,South,179,0.0,2.2,77,0.00,,,0.00,WXlink_for_OpenVMS,2013-04-25 05:25:00,
2013-04-25 01:30:00,54.7,46.0,29.58,SW,217,2.7,0.0,77,0.00,,,0.00,WXlink_for_OpenVMS,2013-04-25 05:30:00,
2013-04-25 01:40:00,54.9,48.0,29.58,ESE,120,0.0,0.0,78,0.00,,,0.00,WXlink_for_OpenVMS,2013-04-25 05:40:00,
2013-04-25 01:45:00,55.0,48.0,29.58,SW,224,0.0,0.0,78,0.00,,,0.00,WXlink_for_OpenVMS,2013-04-25 05:45:00,
2013-04-25 01:50:00,55.2,48.0,29.58,SSW,197,0.0,3.1,78,0.00,,,0.00,WXlink_for_OpenVMS,2013-04-25 05:50:00,
2013-04-25 01:55:00,55.4,48.0,29.58,SW,218,0.0,3.6,79,0.00,,,0.00,WXlink_for_OpenVMS,2013-04-25 05:55:00,
2013-04-25 02:00:00,55.6,48.0,29.58,South,185,3.6,4.0,78,0.00,,,0.00,WXlink_for_OpenVMS,2013-04-25 06:00:00,
2013-04-25 02:05:00,55.6,48.0,29.58,SW,217,0.0,2.7,79,0.00,,,0.00,WXlink_for_OpenVMS,2013-04-25 06:05:00,
2013-04-25 02:10:00,55.8,48.0,29.58,South,184,2.7,2.7,79,0.00,,,0.00,WXlink_for_OpenVMS,2013-04-25 06:10:00,
2013-04-25 02:15:00,55.8,50.0,29.55,South,175,3.1,0.0,80,0.00,,,0.00,WXlink_for_OpenVMS,2013-04-25 06:15:00,
2013-04-25 02:20:00,55.8,48.0,29.55,SW,221,2.2,2.2,79,0.00,,,0.00,WXlink_for_OpenVMS,2013-04-25 06:20:00,
2013-04-25 02:25:00,55.9,50.0,29.55,South,170,0.0,7.2,80,0.00,,,0.00,WXlink_for_OpenVMS,2013-04-25 06:25:00,
2013-04-25 02:30:00,55.9,50.0,29.58,SW,221,0.0,2.2,81,0.00,,,0.00,WXlink_for_OpenVMS,2013-04-25 06:30:00,
2013-04-25 02:35:00,55.9,50.0,29.58,SSW,213,0.0,0.0,81,0.00,,,0.00,WXlink_for_OpenVMS,2013-04-25 06:35:00,
2013-04-25 02:40:00,55.9,50.0,29.58,SSW,204,0.0,0.0,81,0.00,,,0.00,WXlink_for_OpenVMS,2013-04-25 06:40:00,
2013-04-25 02:45:00,56.1,50.0,29.55,SSW,210,0.0,0.0,81,0.00,,,0.00,WXlink_for_OpenVMS,2013-04-25 06:45:00,
2013-04-25 02:50:00,56.1,50.0,29.55,SW,223,2.7,3.1,81,0.00,,,0.00,WXlink_for_OpenVMS,2013-04-25 06:50:00,
2013-04-25 02:55:00,56.1,50.0,29.55,South,187,2.7,0.0,81,0.00,,,0.00,WXlink_for_OpenVMS,2013-04-25 06:55:00,
2013-04-25 03:05:00,56.3,50.0,29.58,SW,232,2.2,0.0,81,0.00,,,0.00,WXlink_for_OpenVMS,2013-04-25 07:05:00,
2013-04-25 03:10:00,56.3,50.0,29.58,SW,218,3.6,3.6,81,0.00,,,0.00,WXlink_for_OpenVMS,2013-04-25 07:10:00,
2013-04-25 03:15:00,56.5,50.0,29.58,SW,234,2.2,2.7,81,0.00,,,0.00,WXlink_for_OpenVMS,2013-04-25 07:15:00,
2013-04-25 03:20:00,56.5,50.0,29.58,SW,217,3.1,3.6,80,0.00,,,0.00,WXlink_for_OpenVMS,2013-04-25 07:20:00,
2013-04-25 03:25:00,56.5,50.0,29.58,SSW,213,3.6,3.6,81,0.00,,,0.00,WXlink_for_OpenVMS,2013-04-25 07:25:00,
2013-04-25 03:30:00,56.5,50.0,29.60,SW,217,2.7,0.0,81,0.00,,,0.00,WXlink_for_OpenVMS,2013-04-25 07:30:00,
2013-04-25 03:35:00,56.5,50.0,29.60,SW,226,0.0,0.0,81,0.00,,,0.00,WXlink_for_OpenVMS,2013-04-25 07:35:00,
2013-04-25 03:45:00,56.5,50.0,29.60,SW,226,0.0,0.0,81,0.00,,,0.00,WXlink_for_OpenVMS,2013-04-25 07:45:00,
2013-04-25 03:50:00,56.5,50.0,29.60,SSW,196,3.1,4.0,81,0.00,,,0.00,WXlink_for_OpenVMS,2013-04-25 07:50:00,
2013-04-25 03:55:00,56.7,50.0,29.60,SW,216,0.0,0.0,81,0.00,,,0.00,WXlink_for_OpenVMS,2013-04-25 07:55:00,
2013-04-25 04:00:00,56.5,50.0,29.60,SSW,209,0.0,0.0,81,0.00,,,0.00,WXlink_for_OpenVMS,2013-04-25 08:00:00,
2013-04-25 04:05:00,56.5,50.0,29.60,SSW,201,0.0,0.0,82,0.00,,,0.00,WXlink_for_OpenVMS,2013-04-25 08:05:00,
2013-04-25 04:10:00,56.5,50.0,29.60,SW,236,0.0,0.0,82,0.00,,,0.00,WXlink_for_OpenVMS,2013-04-25 08:10:00,
2013-04-25 04:15:00,56.5,50.0,29.60,West,281,0.0,0.0,82,0.00,,,0.00,WXlink_for_OpenVMS,2013-04-25 08:15:00,
2013-04-25 04:25:00,56.5,50.0,29.60,SW,227,0.0,0.0,83,0.00,,,0.00,WXlink_for_OpenVMS,2013-04-25 08:25:00,
2013-04-25 04:30:00,56.3,50.0,29.60,SW,232,0.0,0.0,84,0.00,,,0.00,WXlink_for_OpenVMS,2013-04-25 08:30:00,
2013-04-25 04:35:00,56.1,52.0,29.60,SW,216,0.0,0.0,85,0.00,,,0.00,WXlink_for_OpenVMS,2013-04-25 08:35:00,
2013-04-25 04:40:00,55.9,52.0,29.60,SW,216,0.0,0.0,86,0.00,,,0.00,WXlink_for_OpenVMS,2013-04-25 08:40:00,
2013-04-25 04:45:00,55.6,52.0,29.60,SW,225,0.0,0.0,87,0.00,,,0.00,WXlink_for_OpenVMS,2013-04-25 08:45:00,
2013-04-25 04:50:00,55.4,52.0,29.60,SW,225,0.0,0.0,87,0.00,,,0.00,WXlink_for_OpenVMS,2013-04-25 08:50:00,
2013-04-25 04:55:00,55.4,52.0,29.60,West,263,0.0,0.0,88,0.00,,,0.00,WXlink_for_OpenVMS,2013-04-25 08:55:00,
2013-04-25 05:00:00,55.2,52.0,29.63,West,261,0.0,2.7,88,0.00,,,0.00,WXlink_for_OpenVMS,2013-04-25 09:00:00,
2013-04-25 05:05:00,55.0,52.0,29.63,WNW,283,4.0,4.0,88,0.00,,,0.00,WXlink_for_OpenVMS,2013-04-25 09:05:00,
2013-04-25 05:10:00,54.9,52.0,29.63,WSW,247,4.9,4.9,87,0.00,,,0.00,WXlink_for_OpenVMS,2013-04-25 09:10:00,
2013-04-25 05:15:00,54.3,50.0,29.63,West,270,4.9,4.9,85,0.00,,,0.00,WXlink_for_OpenVMS,2013-04-25 09:15:00,
2013-04-25 05:20:00,53.8,48.0,29.63,NW,312,4.9,4.9,84,0.00,,,0.00,WXlink_for_OpenVMS,2013-04-25 09:20:00,
2013-04-25 05:25:00,53.2,48.0,29.63,WNW,287,6.3,6.3,83,0.00,,,0.00,WXlink_for_OpenVMS,2013-04-25 09:25:00,
2013-04-25 05:30:00,52.7,46.0,29.66,WNW,289,8.3,8.3,80,0.00,,,0.00,WXlink_for_OpenVMS,2013-04-25 09:30:00,
2013-04-25 05:35:00,52.2,45.0,29.66,SW,231,6.3,6.3,77,0.00,,,0.00,WXlink_for_OpenVMS,2013-04-25 09:35:00,
2013-04-25 05:40:00,51.6,45.0,29.66,NW,307,5.8,5.8,76,0.00,,,0.00,WXlink_for_OpenVMS,2013-04-25 09:40:00,
2013-04-25 05:50:00,50.9,43.0,29.69,WSW,256,4.0,4.0,72,0.00,,,0.00,WXlink_for_OpenVMS,2013-04-25 09:50:00,
2013-04-25 05:55:00,50.7,41.0,29.69,NW,305,7.2,7.2,71,0.00,,,0.00,WXlink_for_OpenVMS,2013-04-25 09:55:00,
2013-04-25 06:00:00,50.4,39.0,29.69,West,265,4.0,4.0,67,0.00,,,0.00,WXlink_for_OpenVMS,2013-04-25 10:00:00,
2013-04-25 06:05:00,50.2,39.0,29.69,SW,218,4.5,5.4,67,0.00,,,0.00,WXlink_for_OpenVMS,2013-04-25 10:05:00,
2013-04-25 06:10:00,50.0,39.0,29.69,West,270,4.0,5.4,66,0.00,,,0.00,WXlink_for_OpenVMS,2013-04-25 10:10:00,
2013-04-25 06:15:00,50.0,39.0,29.69,WNW,291,4.9,5.4,65,0.00,,,0.00,WXlink_for_OpenVMS,2013-04-25 10:15:00,
2013-04-25 06:25:00,49.6,39.0,29.69,NW,311,4.0,5.4,64,0.00,,,0.00,WXlink_for_OpenVMS,2013-04-25 10:25:00,
2013-04-25 06:30:00,49.5,39.0,29.72,West,271,0.0,0.0,64,0.00,,,0.00,WXlink_for_OpenVMS,2013-04-25 10:30:00,
2013-04-25 06:35:00,49.5,39.0,29.72,SW,232,4.0,4.0,64,0.00,,,0.00,WXlink_for_OpenVMS,2013-04-25 10:35:00,
2013-04-25 06:40:00,49.3,37.0,29.72,NW,317,4.0,5.8,64,0.00,,,0.00,WXlink_for_OpenVMS,2013-04-25 10:40:00,
2013-04-25 06:45:00,49.1,37.0,29.72,WNW,291,3.1,3.1,64,0.00,,,0.00,WXlink_for_OpenVMS,2013-04-25 10:45:00,
2013-04-25 06:50:00,49.1,37.0,29.72,SSW,210,2.7,4.0,65,0.00,,,0.00,WXlink_for_OpenVMS,2013-04-25 10:50:00,
2013-04-25 07:00:00,49.5,39.0,29.75,West,260,3.1,3.1,64,0.00,,,0.00,WXlink_for_OpenVMS,2013-04-25 11:00:00,
2013-04-25 07:05:00,49.5,39.0,29.75,WSW,252,4.5,4.5,64,0.00,,,0.00,WXlink_for_OpenVMS,2013-04-25 11:05:00,
2013-04-25 07:10:00,49.6,37.0,29.75,WNW,293,2.7,3.6,63,0.00,,,0.00,WXlink_for_OpenVMS,2013-04-25 11:10:00,
2013-04-25 07:15:00,49.6,37.0,29.78,WSW,249,3.6,4.0,63,0.00,,,0.00,WXlink_for_OpenVMS,2013-04-25 11:15:00,
2013-04-25 07:20:00,49.8,37.0,29.78,WNW,298,3.6,3.6,63,0.00,,,0.00,WXlink_for_OpenVMS,2013-04-25 11:20:00,
2013-04-25 07:25:00,49.8,37.0,29.78,WNW,299,3.6,4.0,63,0.00,,,0.00,WXlink_for_OpenVMS,2013-04-25 11:25:00,
2013-04-25 07:30:00,49.8,37.0,29.75,SSW,209,2.2,2.7,63,0.00,,,0.00,WXlink_for_OpenVMS,2013-04-25 11:30:00,
2013-04-25 07:35:00,49.6,37.0,29.75,West,276,0.0,0.0,63,0.00,,,0.00,WXlink_for_OpenVMS,2013-04-25 11:35:00,
2013-04-25 07:40:00,49.6,37.0,29.75,WSW,244,0.0,4.0,62,0.00,,,0.00,WXlink_for_OpenVMS,2013-04-25 11:40:00,
2013-04-25 07:45:00,49.6,37.0,29.75,West,275,3.1,3.1,62,0.00,,,0.00,WXlink_for_OpenVMS,2013-04-25 11:45:00,
2013-04-25 07:50:00,49.6,37.0,29.75,SW,234,4.5,4.5,63,0.00,,,0.00,WXlink_for_OpenVMS,2013-04-25 11:50:00,
2013-04-25 07:55:00,49.8,37.0,29.75,NW,307,3.6,5.4,63,0.00,,,0.00,WXlink_for_OpenVMS,2013-04-25 11:55:00,
2013-04-25 08:05:00,50.0,37.0,29.78,West,281,2.7,2.7,61,0.00,,,0.00,WXlink_for_OpenVMS,2013-04-25 12:05:00,
2013-04-25 08:10:00,50.0,37.0,29.78,West,264,3.6,3.6,61,0.00,,,0.00,WXlink_for_OpenVMS,2013-04-25 12:10:00,
2013-04-25 08:15:00,49.8,37.0,29.78,West,260,0.0,2.7,60,0.00,,,0.00,WXlink_for_OpenVMS,2013-04-25 12:15:00,
2013-04-25 08:20:00,50.0,37.0,29.78,SW,226,0.0,0.0,60,0.00,,,0.00,WXlink_for_OpenVMS,2013-04-25 12:20:00,
2013-04-25 08:25:00,50.0,37.0,29.78,NW,310,3.1,3.1,60,0.00,,,0.00,WXlink_for_OpenVMS,2013-04-25 12:25:00,
2013-04-25 08:30:00,50.0,36.0,29.78,West,271,3.1,3.6,59,0.00,,,0.00,WXlink_for_OpenVMS,2013-04-25 12:30:00,
2013-04-25 08:35:00,49.8,36.0,29.78,SW,220,3.6,3.6,59,0.00,,,0.00,WXlink_for_OpenVMS,2013-04-25 12:35:00,
2013-04-25 08:40:00,49.8,36.0,29.78,NW,305,4.0,4.0,58,0.00,,,0.00,WXlink_for_OpenVMS,2013-04-25 12:40:00,
2013-04-25 08:50:00,49.8,36.0,29.78,NW,310,3.1,4.0,57,0.00,,,0.00,WXlink_for_OpenVMS,2013-04-25 12:50:00,
2013-04-25 08:55:00,49.8,36.0,29.78,NNW,342,4.5,4.5,56,0.00,,,0.00,WXlink_for_OpenVMS,2013-04-25 12:55:00,
2013-04-25 09:00:00,50.0,37.0,29.78,West,271,0.0,0.0,56,0.00,,,0.00,WXlink_for_OpenVMS,2013-04-25 13:00:00,
2013-04-25 09:05:00,50.0,37.0,29.78,WSW,238,0.0,0.0,55,0.00,,,0.00,WXlink_for_OpenVMS,2013-04-25 13:05:00,
2013-04-25 09:10:00,50.4,41.0,29.78,WNW,303,3.6,3.6,52,0.00,,,0.00,WXlink_for_OpenVMS,2013-04-25 13:10:00,
2013-04-25 09:15:00,50.7,41.0,29.78,NW,311,5.4,5.8,47,0.00,,,0.00,WXlink_for_OpenVMS,2013-04-25 13:15:00,
2013-04-25 09:20:00,50.9,41.0,29.78,WNW,291,4.0,4.0,47,0.00,,,0.00,WXlink_for_OpenVMS,2013-04-25 13:20:00,
2013-04-25 09:30:00,51.6,41.0,29.78,NW,304,4.0,4.9,44,0.00,,,0.00,WXlink_for_OpenVMS,2013-04-25 13:30:00,
2013-04-25 09:35:00,51.8,39.0,29.78,NW,321,3.6,4.0,44,0.00,,,0.00,WXlink_for_OpenVMS,2013-04-25 13:35:00,
2013-04-25 09:40:00,52.0,39.0,29.78,SW,233,3.6,3.6,44,0.00,,,0.00,WXlink_for_OpenVMS,2013-04-25 13:40:00,
2013-04-25 09:45:00,52.3,41.0,29.81,SW,220,4.5,5.4,44,0.00,,,0.00,WXlink_for_OpenVMS,2013-04-25 13:45:00,
2013-04-25 09:50:00,52.7,39.0,29.81,SW,233,4.0,4.0,44,0.00,,,0.00,WXlink_for_OpenVMS,2013-04-25 13:50:00,
2013-04-25 09:55:00,52.9,37.0,29.81,West,265,4.9,4.9,44,0.00,,,0.00,WXlink_for_OpenVMS,2013-04-25 13:55:00,
2013-04-25 10:00:00,53.1,39.0,29.81,West,263,3.6,3.6,44,0.00,,,0.00,WXlink_for_OpenVMS,2013-04-25 14:00:00,
2013-04-25 10:05:00,53.4,39.0,29.81,West,264,4.9,5.8,44,0.00,,,0.00,WXlink_for_OpenVMS,2013-04-25 14:05:00,
2013-04-25 10:10:00,53.8,39.0,29.81,WNW,286,4.5,4.5,44,0.00,,,0.00,WXlink_for_OpenVMS,2013-04-25 14:10:00,
2013-04-25 10:15:00,54.1,36.0,29.81,NW,315,4.9,4.9,42,0.00,,,0.00,WXlink_for_OpenVMS,2013-04-25 14:15:00,
2013-04-25 10:20:00,54.3,37.0,29.81,WNW,298,5.4,5.4,43,0.00,,,0.00,WXlink_for_OpenVMS,2013-04-25 14:20:00,
2013-04-25 10:25:00,54.5,36.0,29.81,WNW,286,4.9,5.8,42,0.00,,,0.00,WXlink_for_OpenVMS,2013-04-25 14:25:00,
2013-04-25 10:30:00,54.7,37.0,29.81,NW,311,0.0,0.0,43,0.00,,,0.00,WXlink_for_OpenVMS,2013-04-25 14:30:00,
2013-04-25 10:35:00,54.9,37.0,29.81,West,274,3.6,3.6,43,0.00,,,0.00,WXlink_for_OpenVMS,2013-04-25 14:35:00,
2013-04-25 10:40:00,55.2,36.0,29.81,SW,230,3.6,3.6,42,0.00,,,0.00,WXlink_for_OpenVMS,2013-04-25 14:40:00,
2013-04-25 10:45:00,55.9,36.0,29.81,WNW,293,4.0,5.8,42,0.00,,,0.00,WXlink_for_OpenVMS,2013-04-25 14:45:00,
2013-04-25 10:50:00,56.1,36.0,29.81,NNW,328,4.0,5.4,42,0.00,,,0.00,WXlink_for_OpenVMS,2013-04-25 14:50:00,
2013-04-25 10:55:00,56.5,36.0,29.81,WNW,288,2.7,4.0,41,0.00,,,0.00,WXlink_for_OpenVMS,2013-04-25 14:55:00,
2013-04-25 11:00:00,56.7,36.0,29.81,NNW,337,4.0,5.4,41,0.00,,,0.00,WXlink_for_OpenVMS,2013-04-25 15:00:00,
2013-04-25 11:05:00,56.8,36.0,29.81,NW,306,0.0,4.9,40,0.00,,,0.00,WXlink_for_OpenVMS,2013-04-25 15:05:00,
2013-04-25 11:15:00,57.0,36.0,29.81,SW,231,2.7,4.0,41,0.00,,,0.00,WXlink_for_OpenVMS,2013-04-25 15:15:00,
2013-04-25 11:20:00,57.6,36.0,29.81,NNW,343,4.9,5.4,40,0.00,,,0.00,WXlink_for_OpenVMS,2013-04-25 15:20:00,
2013-04-25 11:25:00,57.7,36.0,29.81,NW,318,0.0,0.0,40,0.00,,,0.00,WXlink_for_OpenVMS,2013-04-25 15:25:00,
2013-04-25 11:30:00,57.9,36.0,29.81,NW,325,4.9,4.9,40,0.00,,,0.00,WXlink_for_OpenVMS,2013-04-25 15:30:00,
2013-04-25 11:35:00,58.5,36.0,29.81,WNW,284,5.8,5.8,40,0.00,,,0.00,WXlink_for_OpenVMS,2013-04-25 15:35:00,
2013-04-25 11:45:00,58.6,34.0,29.84,WNW,302,4.9,4.9,39,0.00,,,0.00,WXlink_for_OpenVMS,2013-04-25 15:45:00,
2013-04-25 11:50:00,58.8,36.0,29.84,WNW,288,3.6,3.6,40,0.00,,,0.00,WXlink_for_OpenVMS,2013-04-25 15:50:00,
2013-04-25 11:55:00,59.2,36.0,29.84,SW,231,4.0,4.0,40,0.00,,,0.00,WXlink_for_OpenVMS,2013-04-25 15:55:00,
2013-04-25 12:00:00,59.9,36.0,29.84,WNW,298,3.6,4.5,39,0.00,,,0.00,WXlink_for_OpenVMS,2013-04-25 16:00:00,
2013-04-25 12:05:00,60.3,36.0,29.84,NW,308,0.0,4.5,39,0.00,,,0.00,WXlink_for_OpenVMS,2013-04-25 16:05:00,
2013-04-25 12:10:00,60.1,36.0,29.84,West,281,3.6,4.0,39,0.00,,,0.00,WXlink_for_OpenVMS,2013-04-25 16:10:00,
2013-04-25 12:15:00,59.9,36.0,29.84,NNW,344,4.5,4.5,38,0.00,,,0.00,WXlink_for_OpenVMS,2013-04-25 16:15:00,
2013-04-25 12:20:00,59.5,37.0,29.84,SSW,210,4.0,4.0,38,0.00,,,0.00,WXlink_for_OpenVMS,2013-04-25 16:20:00,
2013-04-25 12:25:00,60.1,37.0,29.84,West,274,4.5,5.4,38,0.00,,,0.00,WXlink_for_OpenVMS,2013-04-25 16:25:00,
2013-04-25 12:30:00,60.8,37.0,29.84,NNW,342,4.9,6.3,38,0.00,,,0.00,WXlink_for_OpenVMS,2013-04-25 16:30:00,
2013-04-25 12:35:00,60.6,36.0,29.84,SW,227,2.7,4.0,37,0.00,,,0.00,WXlink_for_OpenVMS,2013-04-25 16:35:00,
2013-04-25 12:40:00,61.0,36.0,29.84,NW,308,4.0,4.0,37,0.00,,,0.00,WXlink_for_OpenVMS,2013-04-25 16:40:00,
2013-04-25 12:45:00,60.8,36.0,29.84,WNW,282,0.0,0.0,37,0.00,,,0.00,WXlink_for_OpenVMS,2013-04-25 16:45:00,
2013-04-25 12:50:00,61.2,37.0,29.84,NNW,335,4.0,4.0,37,0.00,,,0.00,WXlink_for_OpenVMS,2013-04-25 16:50:00,
2013-04-25 12:55:00,61.3,37.0,29.84,WNW,302,4.0,4.0,37,0.00,,,0.00,WXlink_for_OpenVMS,2013-04-25 16:55:00,
2013-04-25 13:00:00,61.7,36.0,29.84,West,262,4.9,5.4,36,0.00,,,0.00,WXlink_for_OpenVMS,2013-04-25 17:00:00,
2013-04-25 13:05:00,61.9,37.0,29.84,WNW,295,3.1,4.5,36,0.00,,,0.00,WXlink_for_OpenVMS,2013-04-25 17:05:00,
2013-04-25 13:10:00,62.1,37.0,29.84,SW,223,2.7,3.6,36,0.00,,,0.00,WXlink_for_OpenVMS,2013-04-25 17:10:00,
2013-04-25 13:15:00,62.2,37.0,29.84,WSW,255,5.4,5.4,36,0.00,,,0.00,WXlink_for_OpenVMS,2013-04-25 17:15:00,
2013-04-25 13:20:00,63.0,36.0,29.84,WNW,286,6.3,10.1,35,0.00,,,0.00,WXlink_for_OpenVMS,2013-04-25 17:20:00,
2013-04-25 13:25:00,63.3,37.0,29.84,NNW,348,3.6,3.6,36,0.00,,,0.00,WXlink_for_OpenVMS,2013-04-25 17:25:00,
2013-04-25 13:35:00,63.7,37.0,29.84,North,357,0.0,0.0,35,0.00,,,0.00,WXlink_for_OpenVMS,2013-04-25 17:35:00,
2013-04-25 13:40:00,64.0,37.0,29.84,North,350,0.0,0.0,35,0.00,,,0.00,WXlink_for_OpenVMS,2013-04-25 17:40:00,
2013-04-25 13:45:00,64.4,37.0,29.84,SSW,210,4.0,4.0,35,0.00,,,0.00,WXlink_for_OpenVMS,2013-04-25 17:45:00,
2013-04-25 13:50:00,64.9,37.0,29.84,WNW,289,3.1,3.6,35,0.00,,,0.00,WXlink_for_OpenVMS,2013-04-25 17:50:00,
2013-04-25 13:55:00,65.5,37.0,29.84,West,274,4.5,4.5,34,0.00,,,0.00,WXlink_for_OpenVMS,2013-04-25 17:55:00,
2013-04-25 14:00:00,65.5,37.0,29.84,West,274,3.6,3.6,34,0.00,,,0.00,WXlink_for_OpenVMS,2013-04-25 18:00:00,
2013-04-25 14:05:00,64.2,37.0,29.84,West,260,2.7,2.7,34,0.00,,,0.00,WXlink_for_OpenVMS,2013-04-25 18:05:00,
2013-04-25 14:15:00,64.9,37.0,29.84,WSW,238,0.0,0.0,34,0.00,,,0.00,WXlink_for_OpenVMS,2013-04-25 18:15:00,
2013-04-25 14:20:00,65.7,37.0,29.84,West,271,3.1,3.1,34,0.00,,,0.00,WXlink_for_OpenVMS,2013-04-25 18:20:00,
2013-04-25 14:25:00,66.0,37.0,29.84,WSW,257,3.6,4.0,34,0.00,,,0.00,WXlink_for_OpenVMS,2013-04-25 18:25:00,
2013-04-25 14:30:00,66.4,37.0,29.84,South,180,0.0,0.0,33,0.00,,,0.00,WXlink_for_OpenVMS,2013-04-25 18:30:00,
2013-04-25 14:35:00,66.0,39.0,29.84,WSW,241,4.0,5.4,34,0.00,,,0.00,WXlink_for_OpenVMS,2013-04-25 18:35:00,
2013-04-25 14:40:00,66.7,37.0,29.84,NNW,327,3.6,4.0,33,0.00,,,0.00,WXlink_for_OpenVMS,2013-04-25 18:40:00,
2013-04-25 14:45:00,66.9,36.0,29.84,West,261,4.5,4.5,33,0.00,,,0.00,WXlink_for_OpenVMS,2013-04-25 18:45:00,
2013-04-25 14:50:00,66.4,36.0,29.84,NNW,330,4.9,5.8,33,0.00,,,0.00,WXlink_for_OpenVMS,2013-04-25 18:50:00,
2013-04-25 14:55:00,65.5,37.0,29.84,SW,232,3.6,3.6,34,0.00,,,0.00,WXlink_for_OpenVMS,2013-04-25 18:55:00,
2013-04-25 15:00:00,66.0,36.0,29.84,West,275,4.0,4.0,33,0.00,,,0.00,WXlink_for_OpenVMS,2013-04-25 19:00:00,
2013-04-25 15:05:00,66.6,36.0,29.84,NW,310,3.6,3.6,33,0.00,,,0.00,WXlink_for_OpenVMS,2013-04-25 19:05:00,
2013-04-25 15:10:00,66.4,36.0,29.84,WNW,296,4.9,4.9,33,0.00,,,0.00,WXlink_for_OpenVMS,2013-04-25 19:10:00,
2013-04-25 15:15:00,66.6,36.0,29.84,SW,236,4.0,4.0,33,0.00,,,0.00,WXlink_for_OpenVMS,2013-04-25 19:15:00,
2013-04-25 15:25:00,67.1,36.0,29.84,NW,311,3.6,5.4,33,0.00,,,0.00,WXlink_for_OpenVMS,2013-04-25 19:25:00,
2013-04-25 15:30:00,67.3,36.0,29.84,South,170,2.7,3.6,33,0.00,,,0.00,WXlink_for_OpenVMS,2013-04-25 19:30:00,
2013-04-25 15:35:00,67.5,36.0,29.84,West,261,0.0,4.9,33,0.00,,,0.00,WXlink_for_OpenVMS,2013-04-25 19:35:00,
2013-04-25 15:40:00,67.5,36.0,29.84,WNW,297,4.5,4.5,32,0.00,,,0.00,WXlink_for_OpenVMS,2013-04-25 19:40:00,
2013-04-25 15:45:00,67.1,36.0,29.84,West,271,4.9,4.9,32,0.00,,,0.00,WXlink_for_OpenVMS,2013-04-25 19:45:00,
2013-04-25 15:50:00,66.7,34.0,29.84,West,274,0.0,0.0,30,0.00,,,0.00,WXlink_for_OpenVMS,2013-04-25 19:50:00,
2013-04-25 15:55:00,66.6,36.0,29.84,West,266,4.0,4.0,32,0.00,,,0.00,WXlink_for_OpenVMS,2013-04-25 19:55:00,
2013-04-25 16:00:00,66.6,34.0,29.84,WNW,299,4.0,4.0,31,0.00,,,0.00,WXlink_for_OpenVMS,2013-04-25 20:00:00,
2013-04-25 16:05:00,66.4,34.0,29.84,WNW,302,0.0,0.0,29,0.00,,,0.00,WXlink_for_OpenVMS,2013-04-25 20:05:00,
2013-04-25 16:10:00,66.4,33.0,29.84,West,274,3.6,4.9,29,0.00,,,0.00,WXlink_for_OpenVMS,2013-04-25 20:10:00,
2013-04-25 16:15:00,66.2,33.0,29.84,West,270,2.7,3.1,29,0.00,,,0.00,WXlink_for_OpenVMS,2013-04-25 20:15:00,
2013-04-25 16:20:00,65.8,34.0,29.84,WNW,301,0.0,0.0,30,0.00,,,0.00,WXlink_for_OpenVMS,2013-04-25 20:20:00,
2013-04-25 16:25:00,65.5,33.0,29.84,WSW,251,0.0,0.0,30,0.00,,,0.00,WXlink_for_OpenVMS,2013-04-25 20:25:00,
2013-04-25 16:35:00,66.2,36.0,29.84,SSW,196,3.1,3.6,32,0.00,,,0.00,WXlink_for_OpenVMS,2013-04-25 20:35:00,
2013-04-25 16:40:00,66.2,36.0,29.84,South,187,5.8,5.8,32,0.00,,,0.00,WXlink_for_OpenVMS,2013-04-25 20:40:00,
2013-04-25 16:45:00,66.0,34.0,29.84,WSW,248,2.2,3.6,31,0.00,,,0.00,WXlink_for_OpenVMS,2013-04-25 20:45:00,
2013-04-25 16:50:00,66.2,34.0,29.84,WNW,303,3.1,4.0,30,0.00,,,0.00,WXlink_for_OpenVMS,2013-04-25 20:50:00,
2013-04-25 16:55:00,65.8,34.0,29.84,West,265,4.0,5.4,30,0.00,,,0.00,WXlink_for_OpenVMS,2013-04-25 20:55:00,
2013-04-25 17:00:00,65.7,34.0,29.84,West,272,2.7,3.1,30,0.00,,,0.00,WXlink_for_OpenVMS,2013-04-25 21:00:00,
2013-04-25 17:05:00,65.7,34.0,29.84,West,265,0.0,0.0,30,0.00,,,0.00,WXlink_for_OpenVMS,2013-04-25 21:05:00,
2013-04-25 17:10:00,65.3,34.0,29.84,SW,225,3.1,3.1,29,0.00,,,0.00,WXlink_for_OpenVMS,2013-04-25 21:10:00,
2013-04-25 17:15:00,64.9,34.0,29.86,SW,218,3.6,6.7,29,0.00,,,0.00,WXlink_for_OpenVMS,2013-04-25 21:15:00,
2013-04-25 17:20:00,64.6,34.0,29.86,WNW,302,0.0,0.0,30,0.00,,,0.00,WXlink_for_OpenVMS,2013-04-25 21:20:00,
2013-04-25 17:25:00,64.4,34.0,29.86,WSW,256,3.6,4.0,31,0.00,,,0.00,WXlink_for_OpenVMS,2013-04-25 21:25:00,
2013-04-25 17:30:00,64.2,34.0,29.86,WNW,293,3.1,5.4,29,0.00,,,0.00,WXlink_for_OpenVMS,2013-04-25 21:30:00,
2013-04-25 17:35:00,64.0,30.0,29.86,NNW,348,3.6,3.6,28,0.00,,,0.00,WXlink_for_OpenVMS,2013-04-25 21:35:00,
2013-04-25 17:40:00,63.5,34.0,29.86,NW,306,3.6,3.6,29,0.00,,,0.00,WXlink_for_OpenVMS,2013-04-25 21:40:00,
2013-04-25 17:45:00,63.3,30.0,29.86,WNW,300,3.1,3.6,28,0.00,,,0.00,WXlink_for_OpenVMS,2013-04-25 21:45:00,
2013-04-25 17:50:00,63.0,28.0,29.86,NW,325,3.1,4.5,27,0.00,,,0.00,WXlink_for_OpenVMS,2013-04-25 21:50:00,
2013-04-25 17:55:00,63.0,31.0,29.86,SW,235,0.0,0.0,30,0.00,,,0.00,WXlink_for_OpenVMS,2013-04-25 21:55:00,
2013-04-25 18:00:00,63.1,31.0,29.86,SSE,158,2.7,3.1,30,0.00,,,0.00,WXlink_for_OpenVMS,2013-04-25 22:00:00,
2013-04-25 18:05:00,63.1,31.0,29.86,West,280,3.1,3.1,30,0.00,,,0.00,WXlink_for_OpenVMS,2013-04-25 22:05:00,
2013-04-25 18:10:00,63.1,30.0,29.86,West,260,3.1,3.6,29,0.00,,,0.00,WXlink_for_OpenVMS,2013-04-25 22:10:00,
2013-04-25 18:20:00,62.6,31.0,29.86,West,263,0.0,0.0,30,0.00,,,0.00,WXlink_for_OpenVMS,2013-04-25 22:20:00,
2013-04-25 18:25:00,62.4,31.0,29.86,West,271,0.0,0.0,30,0.00,,,0.00,WXlink_for_OpenVMS,2013-04-25 22:25:00,
2013-04-25 18:30:00,62.2,30.0,29.86,WNW,301,0.0,0.0,29,0.00,,,0.00,WXlink_for_OpenVMS,2013-04-25 22:30:00,
2013-04-25 18:35:00,62.1,29.0,29.86,NNW,335,0.0,0.0,29,0.00,,,0.00,WXlink_for_OpenVMS,2013-04-25 22:35:00,
2013-04-25 18:40:00,61.9,29.0,29.86,NNW,339,0.0,0.0,29,0.00,,,0.00,WXlink_for_OpenVMS,2013-04-25 22:40:00,
2013-04-25 18:50:00,61.3,29.0,29.86,NNW,328,3.1,3.6,29,0.00,,,0.00,WXlink_for_OpenVMS,2013-04-25 22:50:00,
2013-04-25 18:55:00,61.2,29.0,29.86,WNW,300,0.0,0.0,29,0.00,,,0.00,WXlink_for_OpenVMS,2013-04-25 22:55:00,
2013-04-25 19:00:00,61.0,29.0,29.90,WNW,293,0.0,0.0,29,0.00,,,0.00,WXlink_for_OpenVMS,2013-04-25 23:00:00,
2013-04-25 19:05:00,60.8,29.0,29.90,WNW,293,0.0,0.0,30,0.00,,,0.00,WXlink_for_OpenVMS,2013-04-25 23:05:00,
2013-04-25 19:10:00,60.6,29.0,29.90,WNW,302,0.0,0.0,30,0.00,,,0.00,WXlink_for_OpenVMS,2013-04-25 23:10:00,
2013-04-25 19:15:00,60.4,29.0,29.90,NW,310,0.0,0.0,30,0.00,,,0.00,WXlink_for_OpenVMS,2013-04-25 23:15:00,
2013-04-25 19:20:00,60.3,29.0,29.90,NW,307,2.7,2.7,30,0.00,,,0.00,WXlink_for_OpenVMS,2013-04-25 23:20:00,
2013-04-25 19:25:00,59.9,28.0,29.90,NW,315,2.2,2.2,30,0.00,,,0.00,WXlink_for_OpenVMS,2013-04-25 23:25:00,
2013-04-25 19:30:00,59.7,28.0,29.86,NW,315,0.0,0.0,30,0.00,,,0.00,WXlink_for_OpenVMS,2013-04-25 23:30:00,
2013-04-25 19:35:00,59.4,28.0,29.86,NW,313,0.0,0.0,30,0.00,,,0.00,WXlink_for_OpenVMS,2013-04-25 23:35:00,
2013-04-25 19:40:00,59.0,28.0,29.86,NW,313,0.0,0.0,31,0.00,,,0.00,WXlink_for_OpenVMS,2013-04-25 23:40:00,
2013-04-25 19:45:00,58.5,29.0,29.90,NW,313,0.0,0.0,32,0.00,,,0.00,WXlink_for_OpenVMS,2013-04-25 23:45:00,
2013-04-25 19:50:00,57.9,29.0,29.90,NW,313,0.0,0.0,33,0.00,,,0.00,WXlink_for_OpenVMS,2013-04-25 23:50:00,
2013-04-25 19:55:00,57.6,29.0,29.90,NW,313,0.0,0.0,34,0.00,,,0.00,WXlink_for_OpenVMS,2013-04-25 23:55:00,
2013-04-25 20:05:00,56.3,28.0,29.90,NW,313,0.0,0.0,34,0.00,,,0.00,WXlink_for_OpenVMS,2013-04-26 00:05:00,
2013-04-25 20:10:00,55.8,29.0,29.90,NW,313,0.0,0.0,35,0.00,,,0.00,WXlink_for_OpenVMS,2013-04-26 00:10:00,
2013-04-25 20:15:00,55.6,28.0,29.93,NW,313,0.0,0.0,35,0.00,,,0.00,WXlink_for_OpenVMS,2013-04-26 00:15:00,
2013-04-25 20:20:00,55.4,28.0,29.93,NW,313,0.0,0.0,35,0.00,,,0.00,WXlink_for_OpenVMS,2013-04-26 00:20:00,
2013-04-25 20:25:00,55.2,28.0,29.93,NW,313,0.0,0.0,35,0.00,,,0.00,WXlink_for_OpenVMS,2013-04-26 00:25:00,
2013-04-25 20:30:00,55.0,28.0,29.93,NW,313,0.0,0.0,35,0.00,,,0.00,WXlink_for_OpenVMS,2013-04-26 00:30:00,
2013-04-25 20:35:00,54.7,28.0,29.93,NW,313,0.0,0.0,35,0.00,,,0.00,WXlink_for_OpenVMS,2013-04-26 00:35:00,
2013-04-25 20:45:00,54.1,28.0,29.93,NW,313,0.0,0.0,36,0.00,,,0.00,WXlink_for_OpenVMS,2013-04-26 00:45:00,
2013-04-25 20:50:00,54.1,28.0,29.93,NW,313,0.0,0.0,36,0.00,,,0.00,WXlink_for_OpenVMS,2013-04-26 00:50:00,
2013-04-25 20:55:00,54.0,28.0,29.93,NW,313,0.0,0.0,36,0.00,,,0.00,WXlink_for_OpenVMS,2013-04-26 00:55:00,
2013-04-25 21:00:00,54.0,28.0,29.93,NW,313,0.0,0.0,36,0.00,,,0.00,WXlink_for_OpenVMS,2013-04-26 01:00:00,
2013-04-25 21:05:00,53.4,27.0,29.93,NW,313,0.0,0.0,36,0.00,,,0.00,WXlink_for_OpenVMS,2013-04-26 01:05:00,
2013-04-25 21:15:00,53.1,27.0,29.96,NW,313,0.0,0.0,37,0.00,,,0.00,WXlink_for_OpenVMS,2013-04-26 01:15:00,
2013-04-25 21:20:00,52.7,27.0,29.96,NW,313,0.0,0.0,37,0.00,,,0.00,WXlink_for_OpenVMS,2013-04-26 01:20:00,
2013-04-25 21:25:00,52.5,27.0,29.96,NW,313,0.0,0.0,37,0.00,,,0.00,WXlink_for_OpenVMS,2013-04-26 01:25:00,
2013-04-25 21:30:00,52.3,27.0,29.96,NW,313,0.0,0.0,38,0.00,,,0.00,WXlink_for_OpenVMS,2013-04-26 01:30:00,
2013-04-25 21:35:00,52.0,28.0,29.96,NW,313,0.0,0.0,39,0.00,,,0.00,WXlink_for_OpenVMS,2013-04-26 01:35:00,
2013-04-25 21:40:00,51.6,28.0,29.96,NW,313,0.0,0.0,40,0.00,,,0.00,WXlink_for_OpenVMS,2013-04-26 01:40:00,
2013-04-25 21:45:00,51.4,29.0,29.96,NW,313,0.0,0.0,41,0.00,,,0.00,WXlink_for_OpenVMS,2013-04-26 01:45:00,
2013-04-25 21:50:00,50.9,28.0,29.96,NW,313,0.0,0.0,41,0.00,,,0.00,WXlink_for_OpenVMS,2013-04-26 01:50:00,
2013-04-25 21:55:00,50.7,28.0,29.96,NW,313,0.0,0.0,41,0.00,,,0.00,WXlink_for_OpenVMS,2013-04-26 01:55:00,
2013-04-25 22:00:00,50.5,28.0,29.96,NW,313,0.0,0.0,41,0.00,,,0.00,WXlink_for_OpenVMS,2013-04-26 02:00:00,
2013-04-25 22:05:00,50.4,28.0,29.96,NW,313,0.0,0.0,41,0.00,,,0.00,WXlink_for_OpenVMS,2013-04-26 02:05:00,
2013-04-25 22:10:00,50.2,28.0,29.96,NW,313,0.0,0.0,42,0.00,,,0.00,WXlink_for_OpenVMS,2013-04-26 02:10:00,
2013-04-25 22:20:00,49.8,28.0,29.99,NW,313,0.0,0.0,43,0.00,,,0.00,WXlink_for_OpenVMS,2013-04-26 02:20:00,
2013-04-25 22:25:00,49.5,28.0,29.99,NW,313,0.0,0.0,43,0.00,,,0.00,WXlink_for_OpenVMS,2013-04-26 02:25:00,
2013-04-25 22:30:00,49.3,29.0,29.99,NW,313,0.0,0.0,45,0.00,,,0.00,WXlink_for_OpenVMS,2013-04-26 02:30:00,
2013-04-25 22:35:00,49.1,29.0,29.99,NW,313,0.0,0.0,46,0.00,,,0.00,WXlink_for_OpenVMS,2013-04-26 02:35:00,
2013-04-25 22:40:00,48.9,29.0,29.99,NW,313,0.0,0.0,46,0.00,,,0.00,WXlink_for_OpenVMS,2013-04-26 02:40:00,
2013-04-25 22:45:00,48.7,29.0,29.99,NW,313,0.0,0.0,47,0.00,,,0.00,WXlink_for_OpenVMS,2013-04-26 02:45:00,
2013-04-25 22:50:00,48.2,29.0,29.99,NW,313,0.0,0.0,47,0.00,,,0.00,WXlink_for_OpenVMS,2013-04-26 02:50:00,
2013-04-25 22:55:00,47.8,29.0,29.99,NW,313,0.0,0.0,48,0.00,,,0.00,WXlink_for_OpenVMS,2013-04-26 02:55:00,
2013-04-25 23:00:00,47.5,29.0,29.99,NW,313,0.0,0.0,48,0.00,,,0.00,WXlink_for_OpenVMS,2013-04-26 03:00:00,
2013-04-25 23:05:00,47.3,29.0,29.99,NW,313,0.0,0.0,49,0.00,,,0.00,WXlink_for_OpenVMS,2013-04-26 03:05:00,
2013-04-25 23:10:00,47.3,29.0,29.99,NW,313,0.0,0.0,49,0.00,,,0.00,WXlink_for_OpenVMS,2013-04-26 03:10:00,
2013-04-25 23:15:00,47.3,30.0,29.99,NW,313,0.0,0.0,50,0.00,,,0.00,WXlink_for_OpenVMS,2013-04-26 03:15:00,
2013-04-25 23:20:00,46.9,29.0,29.99,NW,313,0.0,0.0,50,0.00,,,0.00,WXlink_for_OpenVMS,2013-04-26 03:20:00,
2013-04-25 23:30:00,46.6,29.0,29.99,NW,313,0.0,0.0,51,0.00,,,0.00,WXlink_for_OpenVMS,2013-04-26 03:30:00,
2013-04-25 23:35:00,46.2,30.0,29.99,NW,313,0.0,0.0,52,0.00,,,0.00,WXlink_for_OpenVMS,2013-04-26 03:35:00,
2013-04-25 23:40:00,46.0,29.0,29.99,NW,313,0.0,0.0,52,0.00,,,0.00,WXlink_for_OpenVMS,2013-04-26 03:40:00,
2013-04-25 23:45:00,45.7,29.0,29.99,NW,313,0.0,0.0,52,0.00,,,0.00,WXlink_for_OpenVMS,2013-04-26 03:45:00,
2013-04-25 23:50:00,45.7,30.0,29.99,NW,313,0.0,0.0,53,0.00,,,0.00,WXlink_for_OpenVMS,2013-04-26 03:50:00,
2013-04-25 23:55:00,45.7,29.0,29.99,NW,313,0.0,0.0,52,0.00,,,0.00,WXlink_for_OpenVMS,2013-04-26 03:55:00,